Time;durP1;ratioP1;P1;durP2;ratioP2;P2;SDS_P1;SDS_P2;PMS_P1;PMS_P2;Temp;Humidity;BMP_temperature;BMP_pressure;BME280_temperature;BME280_humidity;BME280_pressure;Samples;Min_cycle;Max_cycle;Signal;HPM_P1;HPM_P2
2021/12/03 00:00:56;;;;;;;10.30;2.50;;;;;;;-2.02;97.62;98229.41;100070;1337;60716;-67
2021/12/03 00:03:46;;;;;;;8.90;2.20;;;;;;;-2.09;97.67;98236.37;100079;1339;74892;-67
2021/12/03 00:06:37;;;;;;;8.90;2.40;;;;;;;-2.16;97.91;98235.89;100076;1340;66938;-67
2021/12/03 00:09:25;;;;;;;8.70;2.30;;;;;;;-2.22;97.90;98237.41;100071;1337;71769;-67
2021/12/03 00:12:13;;;;;;;8.00;2.60;;;;;;;-2.24;97.96;98244.80;100128;1339;59748;-68
2021/12/03 00:15:04;;;;;;;9.30;3.00;;;;;;;-2.25;98.04;98249.55;100080;1336;60598;-68
2021/12/03 00:17:54;;;;;;;8.30;3.00;;;;;;;-2.26;98.08;98253.25;99391;1337;1002963;-68
2021/12/03 00:20:42;;;;;;;9.80;3.50;;;;;;;-2.26;98.10;98255.34;100184;1336;66577;-67
2021/12/03 00:23:31;;;;;;;8.00;3.00;;;;;;;-2.27;97.89;98260.42;99919;1340;71554;-67
2021/12/03 00:26:20;;;;;;;9.30;3.10;;;;;;;-2.29;97.65;98264.20;100051;1337;59666;-68
2021/12/03 00:29:09;;;;;;;7.50;2.70;;;;;;;-2.31;97.92;98269.86;99934;1336;60787;-68
2021/12/03 00:31:57;;;;;;;8.40;3.40;;;;;;;-2.34;97.87;98276.64;100105;1335;71470;-67
2021/12/03 00:34:46;;;;;;;7.70;2.50;;;;;;;-2.37;97.87;98275.90;100065;1337;66031;-67
2021/12/03 00:37:36;;;;;;;9.20;2.60;;;;;;;-2.38;97.85;98275.80;100043;1337;72000;-67
2021/12/03 00:40:30;;;;;;;10.40;3.00;;;;;;;-2.40;97.78;98277.62;100050;1337;59734;-67
2021/12/03 00:43:20;;;;;;;9.10;2.50;;;;;;;-2.42;97.93;98277.73;100056;1336;59672;-67
2021/12/03 00:46:11;;;;;;;9.60;2.80;;;;;;;-2.43;98.05;98281.47;100239;1336;72097;-67
2021/12/03 00:49:00;;;;;;;8.20;2.40;;;;;;;-2.45;98.01;98279.48;100159;1337;66949;-68
2021/12/03 00:51:49;;;;;;;8.00;2.40;;;;;;;-2.47;97.86;98288.23;100079;1337;71839;-67
2021/12/03 00:54:37;;;;;;;7.40;2.30;;;;;;;-2.50;97.94;98295.69;100079;1337;59743;-67
2021/12/03 00:57:26;;;;;;;9.30;2.70;;;;;;;-2.54;97.68;98301.98;100295;1337;59719;-67
2021/12/03 01:00:23;;;;;;;10.40;3.10;;;;;;;-2.59;98.07;98306.40;99834;1339;74076;-67
2021/12/03 01:03:12;;;;;;;7.00;2.50;;;;;;;-2.63;97.98;98310.05;99770;1340;66795;-67
2021/12/03 01:06:00;;;;;;;8.60;2.40;;;;;;;-2.66;97.94;98310.23;100098;1337;73489;-69
2021/12/03 01:08:49;;;;;;;9.20;2.50;;;;;;;-2.69;98.16;98308.84;100265;1342;59738;-68
2021/12/03 01:11:37;;;;;;;7.30;2.40;;;;;;;-2.70;98.22;98308.38;99972;1337;59640;-68
2021/12/03 01:14:26;;;;;;;7.90;2.90;;;;;;;-2.70;98.34;98310.29;99911;1342;73529;-68
2021/12/03 01:17:15;;;;;;;8.40;2.70;;;;;;;-2.70;98.63;98309.76;100086;1335;66766;-67
2021/12/03 01:20:08;;;;;;;9.60;2.50;;;;;;;-2.70;98.47;98317.77;99386;1337;1002845;-68
2021/12/03 01:22:59;;;;;;;6.60;2.30;;;;;;;-2.73;98.41;98315.80;100223;1340;59861;-68
2021/12/03 01:25:49;;;;;;;7.20;2.60;;;;;;;-2.76;98.40;98316.52;100085;1336;60668;-68
2021/12/03 01:28:38;;;;;;;7.00;2.30;;;;;;;-2.80;98.44;98321.71;99423;1336;1003246;-69
2021/12/03 01:31:27;;;;;;;10.70;2.80;;;;;;;-2.83;98.38;98319.98;100133;1336;67142;-69
2021/12/03 01:34:15;;;;;;;9.10;2.60;;;;;;;-2.86;98.67;98321.54;100003;1337;71626;-68
2021/12/03 01:37:04;;;;;;;7.20;2.50;;;;;;;-2.88;98.45;98319.86;99885;1342;59791;-68
2021/12/03 01:39:53;;;;;;;7.80;2.40;;;;;;;-2.89;98.37;98323.21;100359;1337;60657;-68
2021/12/03 01:42:44;;;;;;;7.50;2.60;;;;;;;-2.90;98.36;98324.48;100087;1337;73313;-68
2021/12/03 01:45:37;;;;;;;7.60;2.50;;;;;;;-2.91;98.42;98324.86;100006;1339;67937;-68
2021/12/03 01:48:26;;;;;;;7.40;2.50;;;;;;;-2.90;98.37;98325.16;100022;1342;72799;-68
2021/12/03 01:51:15;;;;;;;6.90;2.40;;;;;;;-2.90;98.11;98328.30;100227;1336;59943;-68
2021/12/03 01:54:04;;;;;;;9.50;2.50;;;;;;;-2.91;98.01;98330.10;100016;1338;59795;-68
2021/12/03 01:56:52;;;;;;;7.90;2.60;;;;;;;-2.93;98.02;98335.39;100235;1337;73499;-68
2021/12/03 01:59:44;;;;;;;9.20;2.50;;;;;;;-2.95;98.07;98337.20;100336;1337;67196;-69
2021/12/03 02:02:32;;;;;;;6.90;2.30;;;;;;;-2.98;97.80;98342.21;99845;1343;71655;-68
2021/12/03 02:05:21;;;;;;;8.10;2.90;;;;;;;-2.98;97.75;98346.73;100110;1337;59601;-68
2021/12/03 02:08:11;;;;;;;10.60;2.90;;;;;;;-2.99;97.51;98343.49;99990;1340;60791;-68
2021/12/03 02:11:00;;;;;;;9.30;2.40;;;;;;;-2.98;97.57;98344.11;100113;1333;73434;-69
2021/12/03 02:13:49;;;;;;;6.30;2.00;;;;;;;-3.02;97.42;98339.66;100138;1337;67199;-68
2021/12/03 02:16:38;;;;;;;7.30;2.20;;;;;;;-3.00;97.32;98345.98;100250;1340;73307;-67
2021/12/03 02:19:29;;;;;;;6.50;2.00;;;;;;;-3.04;97.07;98343.06;100246;1337;59826;-67
2021/12/03 02:22:18;;;;;;;7.40;2.20;;;;;;;-3.05;97.32;98348.15;100164;1337;60782;-67
2021/12/03 02:25:11;;;;;;;6.40;2.30;;;;;;;-3.09;97.05;98346.23;99904;1340;73092;-67
2021/12/03 02:28:00;;;;;;;7.40;3.40;;;;;;;-3.11;96.85;98341.98;100327;1337;66655;-67
2021/12/03 02:30:49;;;;;;;7.50;2.50;;;;;;;-3.11;96.82;98341.48;100093;1340;72270;-67
2021/12/03 02:33:39;;;;;;;7.10;2.30;;;;;;;-3.09;96.71;98339.83;100109;1339;59767;-67
2021/12/03 02:36:27;;;;;;;7.00;2.00;;;;;;;-3.10;96.39;98337.78;99937;1337;59639;-67
2021/12/03 02:39:15;;;;;;;8.40;2.10;;;;;;;-3.10;96.16;98339.37;99699;1343;74813;-69
2021/12/03 02:42:04;;;;;;;6.70;2.20;;;;;;;-3.13;96.13;98342.48;99967;1336;67351;-68
2021/12/03 02:44:53;;;;;;;6.20;2.10;;;;;;;-3.18;96.17;98347.05;100381;1336;73054;-69
2021/12/03 02:47:42;;;;;;;7.10;2.10;;;;;;;-3.20;96.28;98351.14;99694;1337;59869;-72
2021/12/03 02:50:32;;;;;;;7.30;2.00;;;;;;;-3.21;96.51;98355.15;100465;1336;59735;-68
2021/12/03 02:53:21;;;;;;;6.50;2.50;;;;;;;-3.21;96.46;98360.52;100141;1337;72007;-68
2021/12/03 02:56:10;;;;;;;6.90;1.90;;;;;;;-3.20;96.49;98358.05;100394;1340;67927;-68
2021/12/03 02:58:58;;;;;;;5.70;1.80;;;;;;;-3.20;96.61;98361.73;100147;1336;71201;-68
2021/12/03 03:01:47;;;;;;;6.50;2.10;;;;;;;-3.23;96.63;98364.09;99935;1340;59678;-67
2021/12/03 03:04:36;;;;;;;5.80;1.90;;;;;;;-3.27;96.60;98358.38;100185;1337;59720;-68
2021/12/03 03:07:25;;;;;;;8.10;2.40;;;;;;;-3.27;96.75;98359.77;100103;1336;75137;-67
2021/12/03 03:10:18;;;;;;;7.20;2.10;;;;;;;-3.25;96.59;98360.87;99619;1337;68559;-67
2021/12/03 03:13:07;;;;;;;9.20;1.80;;;;;;;-3.24;96.37;98352.17;100082;1337;73100;-67
2021/12/03 03:15:57;;;;;;;6.00;2.10;;;;;;;-3.23;96.41;98357.67;99225;1339;1003847;-67
2021/12/03 03:18:46;;;;;;;7.80;2.10;;;;;;;-3.24;96.49;98345.57;99859;1340;60760;-68
2021/12/03 03:21:39;;;;;;;6.60;2.20;;;;;;;-3.25;96.25;98344.93;100269;1337;75614;-67
2021/12/03 03:24:28;;;;;;;8.00;2.20;;;;;;;-3.26;96.18;98344.27;99424;1340;1003850;-67
2021/12/03 03:27:19;;;;;;;7.40;2.80;;;;;;;-3.28;96.11;98356.36;100057;1340;73137;-67
2021/12/03 03:30:12;;;;;;;7.00;2.30;;;;;;;-3.30;95.89;98363.03;99700;1340;60189;-66
2021/12/03 03:33:02;;;;;;;6.40;2.10;;;;;;;-3.29;95.52;98362.80;99940;1337;61070;-67
2021/12/03 03:35:50;;;;;;;8.00;2.30;;;;;;;-3.24;95.33;98359.64;100136;1337;72795;-67
2021/12/03 03:38:39;;;;;;;6.20;2.00;;;;;;;-3.20;95.48;98356.34;99817;1337;67167;-66
2021/12/03 03:41:28;;;;;;;6.20;2.00;;;;;;;-3.18;95.42;98349.98;100270;1337;73690;-67
2021/12/03 03:44:16;;;;;;;6.00;1.80;;;;;;;-3.17;95.54;98345.09;100164;1337;59761;-67
2021/12/03 03:47:06;;;;;;;5.70;1.60;;;;;;;-3.20;95.67;98343.98;100113;1336;59724;-67
2021/12/03 03:49:55;;;;;;;5.90;1.80;;;;;;;-3.23;95.68;98340.84;99551;1340;1003270;-67
2021/12/03 03:52:45;;;;;;;5.30;1.70;;;;;;;-3.27;95.65;98349.20;99393;1333;1003576;-67
2021/12/03 03:55:33;;;;;;;7.60;2.40;;;;;;;-3.29;95.73;98356.77;100085;1337;73105;-68
2021/12/03 03:58:22;;;;;;;7.10;2.20;;;;;;;-3.31;95.87;98356.16;100106;1336;59834;-68
2021/12/03 04:01:14;;;;;;;7.00;2.20;;;;;;;-3.32;95.90;98353.27;100305;1336;60444;-67
2021/12/03 04:04:03;;;;;;;6.50;1.80;;;;;;;-3.33;96.36;98342.39;100308;1340;71922;-68
2021/12/03 04:06:53;;;;;;;6.30;1.90;;;;;;;-3.34;96.69;98337.90;100426;1337;66798;-69
2021/12/03 04:09:41;;;;;;;6.60;1.90;;;;;;;-3.33;97.08;98338.73;100069;1339;72087;-67
2021/12/03 04:12:30;;;;;;;7.80;2.30;;;;;;;-3.30;97.22;98335.12;101597;1337;59636;-68
2021/12/03 04:15:19;;;;;;;9.60;2.50;;;;;;;-3.25;97.81;98342.52;100479;1337;60476;-68
2021/12/03 04:18:09;;;;;;;7.20;2.30;;;;;;;-3.18;97.83;98343.06;100052;1336;72131;-67
2021/12/03 04:20:58;;;;;;;7.40;2.40;;;;;;;-3.12;97.89;98340.65;100069;1337;68341;-68
2021/12/03 04:23:46;;;;;;;7.00;2.20;;;;;;;-3.07;97.51;98339.20;100208;1337;72336;-68
2021/12/03 04:26:35;;;;;;;7.70;2.10;;;;;;;-3.05;98.02;98329.59;100252;1333;59860;-69
2021/12/03 04:29:23;;;;;;;6.80;2.40;;;;;;;-3.04;97.93;98325.70;100127;1336;59748;-68
2021/12/03 04:32:12;;;;;;;7.90;2.30;;;;;;;-3.02;98.06;98322.30;99905;1340;73621;-67
2021/12/03 04:35:01;;;;;;;8.40;2.40;;;;;;;-2.97;98.19;98316.87;100105;1339;68602;-68
2021/12/03 04:37:49;;;;;;;9.00;2.60;;;;;;;-2.92;98.36;98313.13;100045;1340;71803;-67
2021/12/03 04:40:41;;;;;;;7.70;2.30;;;;;;;-2.86;98.27;98307.25;100107;1337;59712;-68
2021/12/03 04:43:31;;;;;;;8.30;2.40;;;;;;;-2.80;98.10;98305.92;100136;1337;60887;-68
2021/12/03 04:46:21;;;;;;;7.10;2.50;;;;;;;-2.76;98.11;98302.94;100426;1336;73593;-68
2021/12/03 04:49:10;;;;;;;7.50;2.50;;;;;;;-2.73;98.03;98300.03;100265;1340;68695;-71
2021/12/03 04:51:58;;;;;;;8.70;2.50;;;;;;;-2.70;97.90;98301.76;100067;1340;72955;-69
2021/12/03 04:54:47;;;;;;;6.60;2.40;;;;;;;-2.66;97.80;98295.81;100196;1336;59756;-70
2021/12/03 04:57:37;;;;;;;7.90;2.90;;;;;;;-2.60;97.66;98291.90;100158;1340;59666;-68
2021/12/03 05:00:36;;;;;;;7.60;2.40;;;;;;;-2.55;97.53;98293.38;99948;1337;72494;-68
2021/12/03 05:03:29;;;;;;;9.80;2.40;;;;;;;-2.50;97.51;98294.50;100491;1336;67193;-70
2021/12/03 05:06:28;;;;;;;9.30;2.40;;;;;;;-2.46;97.64;98288.16;100301;1337;72805;-69
2021/12/03 05:09:17;;;;;;;8.60;2.60;;;;;;;-2.44;97.23;98286.17;100113;1336;59828;-70
2021/12/03 05:12:07;;;;;;;7.90;2.70;;;;;;;-2.41;97.17;98293.52;99905;1343;60198;-68
2021/12/03 05:14:56;;;;;;;7.60;2.70;;;;;;;-2.36;97.32;98293.58;99788;1340;74095;-69
2021/12/03 05:17:44;;;;;;;7.80;2.40;;;;;;;-2.34;97.47;98296.75;100185;1336;67957;-69
2021/12/03 05:20:33;;;;;;;8.40;2.80;;;;;;;-2.31;97.81;98301.63;100046;1343;72133;-69
2021/12/03 05:23:24;;;;;;;8.60;2.90;;;;;;;-2.29;98.14;98300.68;100390;1336;59928;-71
2021/12/03 05:26:13;;;;;;;7.30;2.60;;;;;;;-2.25;98.25;98306.05;100019;1336;59740;-68
2021/12/03 05:29:02;;;;;;;8.10;2.80;;;;;;;-2.21;98.32;98302.68;100208;1336;71450;-68
2021/12/03 05:31:51;;;;;;;6.20;2.30;;;;;;;-2.17;98.37;98301.42;99858;1339;230843;-69
2021/12/03 05:34:48;;;;;;;6.20;2.40;;;;;;;-2.15;98.58;98295.77;100200;1336;73260;-68
2021/12/03 05:37:38;;;;;;;6.80;2.50;;;;;;;-2.15;98.25;98299.40;99654;1337;1003751;-67
2021/12/03 05:40:27;;;;;;;7.10;2.90;;;;;;;-2.16;98.30;98301.19;100411;1336;59733;-68
2021/12/03 05:43:18;;;;;;;10.30;3.70;;;;;;;-2.15;98.24;98297.52;100085;1339;72505;-68
2021/12/03 05:46:06;;;;;;;10.40;3.40;;;;;;;-2.14;98.24;98295.35;100122;1337;65767;-68
2021/12/03 05:48:54;;;;;;;6.70;2.60;;;;;;;-2.15;98.09;98292.95;99932;1337;71681;-69
2021/12/03 05:51:43;;;;;;;8.50;2.90;;;;;;;-2.14;98.22;98289.31;100166;1340;59640;-67
2021/12/03 05:54:32;;;;;;;9.50;3.20;;;;;;;-2.18;98.33;98286.17;100027;1342;60401;-68
2021/12/03 05:57:21;;;;;;;6.90;2.70;;;;;;;-2.18;98.40;98292.61;100439;1337;71426;-68
2021/12/03 06:00:17;;;;;;;8.70;3.10;;;;;;;-2.18;98.35;98285.48;100060;1337;67079;-69
2021/12/03 06:03:06;;;;;;;8.20;3.10;;;;;;;-2.14;98.67;98297.46;100238;1336;72914;-68
2021/12/03 06:05:55;;;;;;;7.60;3.10;;;;;;;-2.10;99.01;98291.67;100197;1340;59735;-69
2021/12/03 06:08:44;;;;;;;7.80;2.70;;;;;;;-2.09;99.26;98284.64;99685;1340;1003795;-68
2021/12/03 06:11:33;;;;;;;8.40;3.00;;;;;;;-2.04;99.64;98289.27;100156;1336;73564;-68
2021/12/03 06:14:21;;;;;;;7.40;3.00;;;;;;;-2.03;99.83;98284.34;100138;1336;68085;-68
2021/12/03 06:17:12;;;;;;;7.30;2.60;;;;;;;-2.03;99.89;98283.27;100181;1336;71519;-67
2021/12/03 06:20:02;;;;;;;6.40;2.70;;;;;;;-2.02;99.74;98277.37;100221;1341;59706;-72
2021/12/03 06:22:51;;;;;;;7.70;3.50;;;;;;;-2.01;99.76;98280.93;100309;1339;60854;-71
2021/12/03 06:25:39;;;;;;;7.40;3.20;;;;;;;-1.98;99.79;98278.69;100099;1340;74127;-73
2021/12/03 06:28:30;;;;;;;7.20;2.70;;;;;;;-1.93;99.71;98284.14;100164;1340;68233;-72
2021/12/03 06:31:18;;;;;;;7.20;2.80;;;;;;;-1.90;99.41;98283.27;100160;1342;73206;-71
2021/12/03 06:34:07;;;;;;;7.40;2.80;;;;;;;-1.91;98.87;98279.71;100217;1336;59808;-70
2021/12/03 06:36:59;;;;;;;8.10;3.20;;;;;;;-1.96;98.64;98269.68;100194;1336;59714;-71
2021/12/03 06:39:49;;;;;;;8.30;3.30;;;;;;;-2.01;98.69;98264.91;100216;1340;74023;-71
2021/12/03 06:42:38;;;;;;;6.40;3.10;;;;;;;-2.03;98.56;98257.95;100196;1336;68957;-70
2021/12/03 06:45:27;;;;;;;8.70;2.80;;;;;;;-2.05;98.83;98258.90;100372;1337;71743;-70
2021/12/03 06:48:16;;;;;;;8.40;2.50;;;;;;;-2.08;98.87;98258.16;100276;1334;60338;-69
2021/12/03 06:51:04;;;;;;;7.60;2.70;;;;;;;-2.08;99.02;98263.77;100482;1337;59700;-70
2021/12/03 06:53:59;;;;;;;9.70;2.90;;;;;;;-2.08;99.28;98273.14;100084;1336;73513;-70
2021/12/03 06:56:48;;;;;;;8.10;3.20;;;;;;;-2.04;99.41;98280.76;100216;1337;68357;-70
2021/12/03 06:59:37;;;;;;;9.50;3.20;;;;;;;-1.98;99.39;98280.92;99784;1339;71746;-70
2021/12/03 07:02:27;;;;;;;7.90;2.80;;;;;;;-1.92;99.43;98285.11;100213;1342;59743;-70
2021/12/03 07:05:16;;;;;;;8.10;3.00;;;;;;;-1.85;99.29;98288.42;100033;1336;60560;-71
2021/12/03 07:08:06;;;;;;;11.10;3.80;;;;;;;-1.79;99.19;98293.81;100048;1342;73924;-70
2021/12/03 07:10:55;;;;;;;8.20;3.00;;;;;;;-1.75;98.96;98285.63;100076;1342;68431;-70
2021/12/03 07:13:44;;;;;;;10.80;3.10;;;;;;;-1.70;98.74;98280.30;100105;1340;73113;-68
2021/12/03 07:16:32;;;;;;;8.10;3.30;;;;;;;-1.64;98.70;98280.30;99993;1339;59776;-69
2021/12/03 07:19:21;;;;;;;6.20;2.20;;;;;;;-1.60;98.51;98281.96;100043;1336;60222;-69
2021/12/03 07:22:12;;;;;;;8.20;3.20;;;;;;;-1.56;98.60;98282.45;100241;1342;73579;-70
2021/12/03 07:25:02;;;;;;;7.90;3.50;;;;;;;-1.50;98.44;98282.27;100377;1342;68397;-68
2021/12/03 07:27:51;;;;;;;8.90;3.00;;;;;;;-1.47;98.01;98281.05;100056;1340;73195;-69
2021/12/03 07:30:40;;;;;;;7.30;2.50;;;;;;;-1.44;97.74;98275.85;99912;1342;59744;-71
2021/12/03 07:33:31;;;;;;;8.50;3.50;;;;;;;-1.41;97.62;98280.56;100044;1342;60884;-67
2021/12/03 07:36:21;;;;;;;7.60;3.10;;;;;;;-1.40;97.46;98283.61;100025;1343;74018;-69
2021/12/03 07:39:13;;;;;;;7.40;3.50;;;;;;;-1.39;97.08;98294.34;99701;1343;66974;-68
2021/12/03 07:42:06;;;;;;;9.30;3.30;;;;;;;-1.38;96.94;98299.84;100164;1342;73058;-67
2021/12/03 07:44:54;;;;;;;8.00;3.00;;;;;;;-1.36;96.82;98297.48;99879;1340;59757;-69
2021/12/03 07:47:43;;;;;;;6.50;2.40;;;;;;;-1.33;96.53;98295.08;99764;1340;59942;-67
2021/12/03 07:50:35;;;;;;;6.80;2.50;;;;;;;-1.33;96.49;98297.34;100008;1340;73841;-69
2021/12/03 07:53:25;;;;;;;7.90;2.80;;;;;;;-1.31;96.62;98304.35;100353;1337;67847;-69
2021/12/03 07:56:16;;;;;;;6.60;2.90;;;;;;;-1.28;96.43;98313.89;100065;1342;75645;-69
2021/12/03 07:59:06;;;;;;;7.00;2.50;;;;;;;-1.21;96.45;98320.98;100288;1340;59801;-67
2021/12/03 08:01:55;;;;;;;7.40;2.60;;;;;;;-1.21;96.21;98320.67;100134;1341;59919;-69
2021/12/03 08:04:51;;;;;;;8.20;3.10;;;;;;;-1.20;96.84;98310.49;99865;1340;73532;-68
2021/12/03 08:07:50;;;;;;;7.90;3.10;;;;;;;-1.14;97.00;98303.58;100061;1341;68417;-68
2021/12/03 08:10:47;;;;;;;7.50;3.20;;;;;;;-1.12;97.17;98315.43;100078;1340;71563;-67
2021/12/03 08:13:38;;;;;;;7.50;2.80;;;;;;;-1.08;97.24;98318.67;100248;1341;59796;-66
2021/12/03 08:16:26;;;;;;;7.50;3.00;;;;;;;-1.02;97.12;98320.64;100066;1333;60454;-66
2021/12/03 08:19:15;;;;;;;8.50;3.10;;;;;;;-0.94;96.87;98323.66;100051;1340;73772;-66
2021/12/03 08:22:04;;;;;;;9.00;3.30;;;;;;;-0.87;96.53;98327.76;99887;1340;68362;-68
2021/12/03 08:24:54;;;;;;;8.20;3.50;;;;;;;-0.78;96.32;98333.88;99881;1339;72745;-68
2021/12/03 08:27:44;;;;;;;8.50;3.50;;;;;;;-0.69;95.92;98334.73;99694;1342;59755;-69
2021/12/03 08:30:33;;;;;;;11.30;4.00;;;;;;;-0.61;95.80;98336.17;99770;1342;60904;-71
2021/12/03 08:33:26;;;;;;;10.20;3.70;;;;;;;-0.57;95.58;98345.19;100196;1342;72494;-69
2021/12/03 08:36:15;;;;;;;9.60;4.10;;;;;;;-0.57;95.37;98354.39;100256;1339;66615;-70
2021/12/03 08:39:11;;;;;;;7.20;3.10;;;;;;;-0.56;95.41;98357.27;100296;1343;73204;-71
2021/12/03 08:42:10;;;;;;;8.40;3.50;;;;;;;-0.54;95.72;98357.50;100284;1343;59814;-70
2021/12/03 08:44:59;;;;;;;7.50;2.80;;;;;;;-0.54;95.71;98366.40;100653;1337;60041;-71
2021/12/03 08:47:51;;;;;;;9.10;3.70;;;;;;;-0.54;96.18;98365.56;99972;1340;73666;-71
2021/12/03 08:50:54;;;;;;;8.20;3.10;;;;;;;-0.49;96.42;98369.27;100190;1340;68355;-72
2021/12/03 08:56:32;;;;;;;6.50;3.00;;;;;;;-0.54;96.88;98369.73;100619;1340;59872;-72
2021/12/03 08:59:21;;;;;;;7.10;2.70;;;;;;;-0.59;97.39;98367.61;100154;1342;61107;-68
2021/12/03 09:02:10;;;;;;;6.40;2.60;;;;;;;-0.57;97.63;98368.69;99840;1343;73427;-70
2021/12/03 09:04:59;;;;;;;7.20;3.00;;;;;;;-0.47;97.53;98371.08;100037;1343;68489;-68
2021/12/03 09:07:47;;;;;;;6.80;2.90;;;;;;;-0.30;96.84;98378.92;99929;1336;71751;-70
2021/12/03 09:10:51;;;;;;;7.60;3.20;;;;;;;-0.07;95.77;98378.46;100163;1342;59872;-71
2021/12/03 09:13:40;;;;;;;7.70;3.50;;;;;;;0.15;94.89;98380.92;100068;1342;61156;-72
2021/12/03 09:16:29;;;;;;;6.70;3.10;;;;;;;0.25;93.60;98376.27;100001;1342;71895;-70
2021/12/03 09:19:23;;;;;;;6.90;2.70;;;;;;;0.25;93.34;98376.66;99903;1343;66593;-72
2021/12/03 09:22:19;;;;;;;7.60;3.40;;;;;;;0.39;93.34;98377.73;100016;1343;73220;-71
2021/12/03 09:25:13;;;;;;;7.60;3.50;;;;;;;0.52;92.57;98378.48;100073;1343;59736;-74
2021/12/03 09:28:06;;;;;;;8.10;3.30;;;;;;;0.66;92.33;98383.48;100362;1342;59815;-75
2021/12/03 09:30:54;;;;;;;9.50;3.20;;;;;;;0.82;91.43;98385.29;100164;1342;74485;-69
2021/12/03 09:33:46;;;;;;;9.20;3.50;;;;;;;2.15;92.67;98386.84;100045;1343;68666;-69
2021/12/03 09:36:39;;;;;;;9.10;3.80;;;;;;;3.91;85.88;98381.43;100155;1343;73607;-71
2021/12/03 09:39:28;;;;;;;10.00;3.10;;;;;;;3.41;80.16;98382.42;100386;1343;60204;-68
2021/12/03 09:42:21;;;;;;;6.80;2.90;;;;;;;2.86;81.00;98389.61;99966;1343;60849;-70
2021/12/03 09:45:10;;;;;;;10.10;3.30;;;;;;;2.43;82.32;98390.53;100393;1336;72708;-71
2021/12/03 09:48:05;;;;;;;7.10;2.60;;;;;;;2.01;82.65;98393.34;100400;1340;68408;-69
2021/12/03 09:50:54;;;;;;;8.50;3.40;;;;;;;1.63;83.95;98389.73;100077;1342;73212;-70
2021/12/03 09:54:27;;;;;;;8.40;3.70;;;;;;;1.31;85.55;98390.81;99988;1337;59840;-73
2021/12/03 09:57:02;;;;;;;7.70;2.70;;;;;;;1.18;86.78;98396.59;100388;1342;60461;-71
2021/12/03 10:08:33;;;;;;;10.30;3.70;;;;;;;0.59;90.63;98409.60;100195;1340;72501;-71
2021/12/03 10:15:41;;;;;;;8.80;3.80;;;;;;;0.39;93.15;98415.04;100192;1340;73189;-76
2021/12/03 10:18:56;;;;;;;11.40;5.00;;;;;;;0.46;93.09;98414.40;99961;1342;67165;-75
2021/12/03 10:39:24;;;;;;;14.30;5.90;;;;;;;0.60;94.99;98429.45;100119;1334;59773;-69
2021/12/03 10:45:37;;;;;;;11.50;4.30;;;;;;;0.66;94.11;98426.78;100413;1340;71061;-70
2021/12/03 10:55:25;;;;;;;9.30;3.40;;;;;;;0.85;92.89;98436.97;100553;1336;59884;-67
2021/12/03 10:58:59;;;;;;;10.00;3.80;;;;;;;1.01;92.84;98437.49;100254;1337;59998;-69
2021/12/03 11:15:57;;;;;;;8.60;3.30;;;;;;;1.20;91.59;98451.48;100322;1340;61065;-70
2021/12/03 11:19:07;;;;;;;8.40;3.10;;;;;;;1.13;90.63;98459.44;100191;1336;73407;-68
2021/12/03 11:34:04;;;;;;;10.80;3.80;;;;;;;0.70;92.28;98467.76;99903;1340;72126;-69
2021/12/03 11:59:43;;;;;;;11.90;4.30;;;;;;;0.87;92.54;98488.54;100287;1341;59731;-70
2021/12/03 13:29:22;;;;;;;6.80;3.10;;;;;;;0.40;91.89;98571.67;100236;1340;67313;-68
2021/12/03 13:38:58;;;;;;;9.00;4.10;;;;;;;0.30;93.10;98586.23;99677;1340;61290;-70
2021/12/03 14:16:18;;;;;;;12.40;4.90;;;;;;;-0.19;95.85;98606.84;100456;1340;73625;-68
2021/12/03 14:43:51;;;;;;;13.70;6.10;;;;;;;-0.45;97.95;98645.05;99169;1336;1003801;-67
2021/12/03 14:53:17;;;;;;;11.00;5.40;;;;;;;-0.39;97.40;98657.10;99956;1333;71716;-67
2021/12/03 14:56:11;;;;;;;11.60;5.10;;;;;;;-0.38;97.41;98658.61;100031;1333;59738;-67
2021/12/03 14:59:19;;;;;;;13.70;6.60;;;;;;;-0.35;97.60;98660.34;100346;1333;59822;-67
2021/12/03 15:02:24;;;;;;;10.10;4.80;;;;;;;-0.33;97.44;98667.05;100289;1334;73860;-66
2021/12/03 15:08:05;;;;;;;10.90;5.40;;;;;;;-0.31;97.60;98672.17;100097;1340;72796;-67
2021/12/03 15:23:29;;;;;;;17.60;6.50;;;;;;;-0.16;98.39;98677.43;100062;1340;73086;-66
2021/12/03 15:35:52;;;;;;;13.70;5.90;;;;;;;-0.13;98.62;98683.55;100257;1340;68307;-66
2021/12/03 15:39:07;;;;;;;14.10;6.90;;;;;;;-0.13;98.76;98683.05;99872;1339;71903;-67
2021/12/03 16:03:29;;;;;;;15.60;6.10;;;;;;;-0.10;99.49;98689.66;99875;1337;59765;-67
2021/12/03 16:10:34;;;;;;;11.70;5.80;;;;;;;-0.04;99.55;98690.70;100255;1336;72705;-67
2021/12/03 16:19:29;;;;;;;11.50;5.30;;;;;;;-0.01;99.51;98696.14;100187;1337;74998;-67
2021/12/03 16:22:30;;;;;;;12.00;5.40;;;;;;;-0.02;99.50;98697.73;99949;1340;68321;-67
2021/12/03 16:53:26;;;;;;;10.90;5.40;;;;;;;-0.09;100.00;98697.47;99941;1344;68546;-67
2021/12/03 16:56:36;;;;;;;12.40;6.20;;;;;;;-0.12;100.00;98704.79;100031;1336;73727;-67
2021/12/03 16:59:25;;;;;;;12.50;6.30;;;;;;;-0.13;100.00;98702.77;99719;1337;59911;-67
2021/12/03 17:02:28;;;;;;;12.60;7.10;;;;;;;-0.16;100.00;98699.42;99733;1342;59703;-67
2021/12/03 17:11:34;;;;;;;16.70;7.90;;;;;;;-0.17;100.00;98707.30;100134;1337;73121;-67
2021/12/03 17:28:13;;;;;;;14.20;6.60;;;;;;;-0.21;100.00;98697.91;100260;1340;72831;-70
2021/12/03 17:57:56;;;;;;;14.90;8.10;;;;;;;-0.15;100.00;98700.95;99771;1344;73069;-70
2021/12/03 18:06:59;;;;;;;16.10;8.10;;;;;;;-0.16;100.00;98699.05;100302;1340;72047;-71
2021/12/03 18:53:05;;;;;;;17.40;7.30;;;;;;;0.10;98.80;98708.63;100162;1337;72198;-69
2021/12/03 18:55:56;;;;;;;15.40;6.70;;;;;;;0.11;98.77;98713.64;100179;1337;68555;-72
2021/12/03 18:58:50;;;;;;;16.80;8.20;;;;;;;0.11;98.65;98714.83;100000;1340;73150;-70
2021/12/03 19:01:39;;;;;;;18.80;8.50;;;;;;;0.10;98.44;98716.26;100258;1340;59694;-71
2021/12/03 19:04:37;;;;;;;17.30;8.00;;;;;;;0.11;98.20;98715.70;99834;1342;60405;-69
2021/12/03 19:10:51;;;;;;;19.30;8.60;;;;;;;0.12;98.04;98718.98;100283;1340;68343;-66
2021/12/03 19:13:41;;;;;;;13.70;6.70;;;;;;;0.12;98.07;98716.89;100305;1340;71748;-67
2021/12/03 19:16:31;;;;;;;17.00;7.70;;;;;;;0.09;97.54;98716.15;100039;1341;59714;-67
2021/12/03 19:19:20;;;;;;;18.10;8.40;;;;;;;0.08;97.03;98707.31;99933;1337;60745;-67
2021/12/03 19:22:08;;;;;;;17.80;8.10;;;;;;;0.09;97.01;98704.32;100245;1337;73884;-67
2021/12/03 19:24:58;;;;;;;17.50;8.10;;;;;;;0.09;97.01;98701.86;100134;1334;68175;-67
2021/12/03 19:27:47;;;;;;;16.40;7.30;;;;;;;0.08;96.98;98698.23;100100;1333;70435;-67
2021/12/03 19:30:37;;;;;;;16.50;6.80;;;;;;;0.07;96.83;98696.05;100154;1333;59856;-66
2021/12/03 19:33:26;;;;;;;21.50;8.50;;;;;;;0.05;97.16;98702.60;100319;1337;60828;-66
2021/12/03 19:36:27;;;;;;;15.90;7.50;;;;;;;0.03;97.08;98700.09;100346;1337;73680;-66
2021/12/03 19:39:20;;;;;;;16.10;7.40;;;;;;;0.02;97.10;98700.14;100334;1337;68733;-65
2021/12/03 19:42:13;;;;;;;17.10;7.00;;;;;;;0.02;97.09;98702.42;100371;1337;72961;-66
2021/12/03 19:45:05;;;;;;;17.20;8.10;;;;;;;0.02;97.03;98695.45;99920;1336;59838;-69
2021/12/03 19:48:01;;;;;;;16.50;7.50;;;;;;;-0.01;97.10;98693.36;99945;1339;60151;-67
2021/12/03 19:50:56;;;;;;;16.30;7.50;;;;;;;-0.05;97.00;98700.76;100260;1340;73467;-68
2021/12/03 19:53:55;;;;;;;18.00;7.40;;;;;;;-0.07;96.86;98701.70;100068;1340;66770;-67
2021/12/03 19:56:44;;;;;;;12.90;7.20;;;;;;;-0.07;96.76;98696.66;99974;1339;70729;-67
2021/12/03 19:59:34;;;;;;;16.20;7.30;;;;;;;-0.09;96.66;98693.95;99860;1342;59787;-68
2021/12/03 20:02:24;;;;;;;14.70;6.50;;;;;;;-0.11;96.57;98688.84;100303;1339;61120;-68
2021/12/03 20:05:12;;;;;;;15.70;7.70;;;;;;;-0.13;96.38;98686.38;99961;1343;73558;-68
2021/12/03 20:08:05;;;;;;;17.60;7.80;;;;;;;-0.15;96.45;98688.70;99780;1339;68224;-68
2021/12/03 20:10:58;;;;;;;15.10;5.90;;;;;;;-0.17;96.28;98678.89;100264;1336;73300;-69
2021/12/03 20:13:50;;;;;;;13.70;5.80;;;;;;;-0.17;96.17;98676.81;100284;1337;59730;-68
2021/12/03 20:19:41;;;;;;;13.10;5.80;;;;;;;-0.19;96.47;98675.73;100009;1339;72286;-68
2021/12/03 20:22:43;;;;;;;15.90;7.60;;;;;;;-0.23;96.31;98671.40;99866;1339;68784;-67
2021/12/03 20:28:44;;;;;;;14.80;7.40;;;;;;;-0.27;96.66;98669.36;100337;1340;59841;-70
2021/12/03 20:31:45;;;;;;;12.10;6.20;;;;;;;-0.30;96.79;98669.01;100109;1339;59949;-69
2021/12/03 20:37:42;;;;;;;15.70;7.20;;;;;;;-0.34;97.03;98673.89;99824;1342;68242;-69
2021/12/03 20:40:41;;;;;;;17.30;7.50;;;;;;;-0.31;96.91;98672.55;99847;1340;73667;-72
2021/12/03 20:46:43;;;;;;;14.40;6.80;;;;;;;-0.30;96.66;98675.81;99992;1336;60880;-70